sensor_id;sensor_type;location;lat;lon;timestamp;temperature;humidity
6178;DHT22;3122;48.208;11.174;2024-02-23T00:00:13;7.40;1.00
6178;DHT22;3122;48.208;11.174;2024-02-23T00:05:14;7.40;1.00
6178;DHT22;3122;48.208;11.174;2024-02-23T00:10:15;7.40;1.00
6178;DHT22;3122;48.208;11.174;2024-02-23T00:15:15;7.30;1.00
6178;DHT22;3122;48.208;11.174;2024-02-23T00:20:16;7.20;1.00
6178;DHT22;3122;48.208;11.174;2024-02-23T00:25:17;7.20;1.00
6178;DHT22;3122;48.208;11.174;2024-02-23T00:30:17;7.10;1.00
6178;DHT22;3122;48.208;11.174;2024-02-23T00:35:18;7.10;1.00
6178;DHT22;3122;48.208;11.174;2024-02-23T00:40:19;7.10;1.00
6178;DHT22;3122;48.208;11.174;2024-02-23T00:45:19;7.10;1.00
6178;DHT22;3122;48.208;11.174;2024-02-23T00:50:20;7.00;1.00
6178;DHT22;3122;48.208;11.174;2024-02-23T00:55:21;7.00;1.00
6178;DHT22;3122;48.208;11.174;2024-02-23T01:00:21;7.00;1.00
6178;DHT22;3122;48.208;11.174;2024-02-23T01:05:22;6.90;1.00
6178;DHT22;3122;48.208;11.174;2024-02-23T01:10:22;6.90;1.00
6178;DHT22;3122;48.208;11.174;2024-02-23T01:15:23;6.90;1.00
6178;DHT22;3122;48.208;11.174;2024-02-23T01:20:23;6.90;1.00
6178;DHT22;3122;48.208;11.174;2024-02-23T01:25:24;6.90;1.00
6178;DHT22;3122;48.208;11.174;2024-02-23T01:30:25;6.90;1.00
6178;DHT22;3122;48.208;11.174;2024-02-23T01:35:25;6.80;1.00
6178;DHT22;3122;48.208;11.174;2024-02-23T01:40:26;6.70;1.00
6178;DHT22;3122;48.208;11.174;2024-02-23T01:45:26;6.60;1.00
6178;DHT22;3122;48.208;11.174;2024-02-23T01:50:27;6.50;1.00
6178;DHT22;3122;48.208;11.174;2024-02-23T01:55:28;6.40;1.00
6178;DHT22;3122;48.208;11.174;2024-02-23T02:00:30;6.40;1.00
6178;DHT22;3122;48.208;11.174;2024-02-23T02:05:31;6.30;1.00
6178;DHT22;3122;48.208;11.174;2024-02-23T02:10:32;6.30;1.00
6178;DHT22;3122;48.208;11.174;2024-02-23T02:15:32;6.20;1.00
6178;DHT22;3122;48.208;11.174;2024-02-23T02:20:33;6.20;1.00
6178;DHT22;3122;48.208;11.174;2024-02-23T02:25:36;6.10;1.00
6178;DHT22;3122;48.208;11.174;2024-02-23T02:30:37;6.00;1.00
6178;DHT22;3122;48.208;11.174;2024-02-23T02:35:38;6.00;1.00
6178;DHT22;3122;48.208;11.174;2024-02-23T02:40:38;6.00;1.00
6178;DHT22;3122;48.208;11.174;2024-02-23T02:45:39;6.00;1.00
6178;DHT22;3122;48.208;11.174;2024-02-23T02:50:40;6.00;1.00
6178;DHT22;3122;48.208;11.174;2024-02-23T02:55:42;6.00;1.00
6178;DHT22;3122;48.208;11.174;2024-02-23T03:00:42;6.00;1.00
6178;DHT22;3122;48.208;11.174;2024-02-23T03:05:43;6.00;1.00
6178;DHT22;3122;48.208;11.174;2024-02-23T03:10:43;6.00;1.00
6178;DHT22;3122;48.208;11.174;2024-02-23T03:15:44;6.00;1.00
6178;DHT22;3122;48.208;11.174;2024-02-23T03:20:45;5.80;1.00
6178;DHT22;3122;48.208;11.174;2024-02-23T03:25:45;5.40;1.00
6178;DHT22;3122;48.208;11.174;2024-02-23T03:30:46;5.00;1.00
6178;DHT22;3122;48.208;11.174;2024-02-23T03:35:46;5.00;1.00
6178;DHT22;3122;48.208;11.174;2024-02-23T03:40:47;4.90;1.00
6178;DHT22;3122;48.208;11.174;2024-02-23T03:45:47;4.80;1.00
6178;DHT22;3122;48.208;11.174;2024-02-23T03:50:48;4.80;1.00
6178;DHT22;3122;48.208;11.174;2024-02-23T03:55:48;4.80;1.00
6178;DHT22;3122;48.208;11.174;2024-02-23T04:00:49;4.80;1.00
6178;DHT22;3122;48.208;11.174;2024-02-23T04:05:50;4.90;1.00
6178;DHT22;3122;48.208;11.174;2024-02-23T04:10:50;4.90;1.00
6178;DHT22;3122;48.208;11.174;2024-02-23T04:15:51;4.80;1.00
6178;DHT22;3122;48.208;11.174;2024-02-23T04:20:51;4.90;1.00
6178;DHT22;3122;48.208;11.174;2024-02-23T04:25:52;5.00;1.00
6178;DHT22;3122;48.208;11.174;2024-02-23T04:30:52;5.10;1.00
6178;DHT22;3122;48.208;11.174;2024-02-23T04:35:53;5.10;1.00
6178;DHT22;3122;48.208;11.174;2024-02-23T04:40:54;5.10;1.00
6178;DHT22;3122;48.208;11.174;2024-02-23T04:45:54;5.10;1.00
6178;DHT22;3122;48.208;11.174;2024-02-23T04:50:55;5.00;1.00
6178;DHT22;3122;48.208;11.174;2024-02-23T04:55:55;5.00;1.00
6178;DHT22;3122;48.208;11.174;2024-02-23T05:00:56;5.00;1.00
6178;DHT22;3122;48.208;11.174;2024-02-23T05:05:56;5.00;1.00
6178;DHT22;3122;48.208;11.174;2024-02-23T05:10:57;5.10;1.00
6178;DHT22;3122;48.208;11.174;2024-02-23T05:15:58;5.00;1.00
6178;DHT22;3122;48.208;11.174;2024-02-23T05:20:58;4.90;1.00
6178;DHT22;3122;48.208;11.174;2024-02-23T05:26:00;4.90;1.00
6178;DHT22;3122;48.208;11.174;2024-02-23T05:31:02;4.90;1.00
6178;DHT22;3122;48.208;11.174;2024-02-23T05:36:04;5.00;1.00
6178;DHT22;3122;48.208;11.174;2024-02-23T05:41:05;5.00;1.00
6178;DHT22;3122;48.208;11.174;2024-02-23T05:46:06;5.00;1.00
6178;DHT22;3122;48.208;11.174;2024-02-23T05:51:06;4.90;1.00
6178;DHT22;3122;48.208;11.174;2024-02-23T05:56:07;4.90;1.00
6178;DHT22;3122;48.208;11.174;2024-02-23T06:01:08;5.00;1.00
6178;DHT22;3122;48.208;11.174;2024-02-23T06:06:08;4.90;1.00
6178;DHT22;3122;48.208;11.174;2024-02-23T06:11:12;4.90;1.00
6178;DHT22;3122;48.208;11.174;2024-02-23T06:16:12;4.90;1.00
6178;DHT22;3122;48.208;11.174;2024-02-23T06:21:14;4.80;1.00
6178;DHT22;3122;48.208;11.174;2024-02-23T06:26:15;4.90;1.00
6178;DHT22;3122;48.208;11.174;2024-02-23T06:31:16;4.90;1.00
6178;DHT22;3122;48.208;11.174;2024-02-23T06:36:17;4.80;1.00
6178;DHT22;3122;48.208;11.174;2024-02-23T06:41:18;4.80;1.00
6178;DHT22;3122;48.208;11.174;2024-02-23T06:46:19;4.70;1.00
6178;DHT22;3122;48.208;11.174;2024-02-23T06:51:23;4.70;1.00
6178;DHT22;3122;48.208;11.174;2024-02-23T06:56:23;4.70;1.00
6178;DHT22;3122;48.208;11.174;2024-02-23T07:01:24;4.80;1.00
6178;DHT22;3122;48.208;11.174;2024-02-23T07:06:25;4.80;1.00
6178;DHT22;3122;48.208;11.174;2024-02-23T07:11:26;4.80;1.00
6178;DHT22;3122;48.208;11.174;2024-02-23T07:16:26;4.80;1.00
6178;DHT22;3122;48.208;11.174;2024-02-23T07:21:27;4.80;1.00
6178;DHT22;3122;48.208;11.174;2024-02-23T07:26:28;4.70;1.00
6178;DHT22;3122;48.208;11.174;2024-02-23T07:31:29;4.60;1.00
6178;DHT22;3122;48.208;11.174;2024-02-23T07:36:30;4.60;1.00
6178;DHT22;3122;48.208;11.174;2024-02-23T07:41:31;4.60;1.00
6178;DHT22;3122;48.208;11.174;2024-02-23T07:46:31;4.70;1.00
6178;DHT22;3122;48.208;11.174;2024-02-23T07:51:32;4.80;1.00
6178;DHT22;3122;48.208;11.174;2024-02-23T07:56:33;4.80;1.00
6178;DHT22;3122;48.208;11.174;2024-02-23T08:01:33;4.70;1.00
6178;DHT22;3122;48.208;11.174;2024-02-23T08:06:34;4.80;1.00
6178;DHT22;3122;48.208;11.174;2024-02-23T08:11:35;4.80;1.00
6178;DHT22;3122;48.208;11.174;2024-02-23T08:16:35;4.80;1.00
6178;DHT22;3122;48.208;11.174;2024-02-23T08:21:36;4.90;1.00
6178;DHT22;3122;48.208;11.174;2024-02-23T08:26:36;5.00;1.00
6178;DHT22;3122;48.208;11.174;2024-02-23T08:31:38;5.10;1.00
6178;DHT22;3122;48.208;11.174;2024-02-23T08:36:39;5.10;1.00
6178;DHT22;3122;48.208;11.174;2024-02-23T08:41:39;5.10;1.00
6178;DHT22;3122;48.208;11.174;2024-02-23T08:46:40;5.10;1.00
6178;DHT22;3122;48.208;11.174;2024-02-23T08:51:41;5.10;1.00
6178;DHT22;3122;48.208;11.174;2024-02-23T08:56:41;5.10;1.00
6178;DHT22;3122;48.208;11.174;2024-02-23T09:01:43;5.20;1.00
6178;DHT22;3122;48.208;11.174;2024-02-23T09:06:44;5.20;1.00
6178;DHT22;3122;48.208;11.174;2024-02-23T09:11:46;5.10;1.00
6178;DHT22;3122;48.208;11.174;2024-02-23T09:16:46;5.10;1.00
6178;DHT22;3122;48.208;11.174;2024-02-23T09:21:47;5.20;1.00
6178;DHT22;3122;48.208;11.174;2024-02-23T09:26:48;5.10;1.00
6178;DHT22;3122;48.208;11.174;2024-02-23T09:31:49;5.10;1.00
6178;DHT22;3122;48.208;11.174;2024-02-23T09:36:49;5.10;1.00
6178;DHT22;3122;48.208;11.174;2024-02-23T09:41:53;5.20;1.00
6178;DHT22;3122;48.208;11.174;2024-02-23T09:46:54;5.10;1.00
6178;DHT22;3122;48.208;11.174;2024-02-23T09:51:55;5.20;1.00
6178;DHT22;3122;48.208;11.174;2024-02-23T09:56:56;5.20;1.00
6178;DHT22;3122;48.208;11.174;2024-02-23T10:01:57;5.20;1.00
6178;DHT22;3122;48.208;11.174;2024-02-23T10:06:57;5.20;1.00
6178;DHT22;3122;48.208;11.174;2024-02-23T10:11:58;5.30;1.00
6178;DHT22;3122;48.208;11.174;2024-02-23T10:17:03;5.30;1.00
6178;DHT22;3122;48.208;11.174;2024-02-23T10:22:04;5.50;1.00
6178;DHT22;3122;48.208;11.174;2024-02-23T10:27:05;5.50;1.00
6178;DHT22;3122;48.208;11.174;2024-02-23T10:32:06;5.60;1.00
6178;DHT22;3122;48.208;11.174;2024-02-23T10:37:07;5.50;1.00
6178;DHT22;3122;48.208;11.174;2024-02-23T10:42:09;5.70;1.00
6178;DHT22;3122;48.208;11.174;2024-02-23T10:47:11;5.90;1.00
6178;DHT22;3122;48.208;11.174;2024-02-23T10:52:12;5.90;1.00
6178;DHT22;3122;48.208;11.174;2024-02-23T10:57:17;5.90;1.00
6178;DHT22;3122;48.208;11.174;2024-02-23T11:02:19;5.90;1.00
6178;DHT22;3122;48.208;11.174;2024-02-23T11:07:21;5.80;1.00
6178;DHT22;3122;48.208;11.174;2024-02-23T11:12:23;5.90;1.00
6178;DHT22;3122;48.208;11.174;2024-02-23T11:17:27;5.90;1.00
6178;DHT22;3122;48.208;11.174;2024-02-23T11:22:32;5.80;1.00
6178;DHT22;3122;48.208;11.174;2024-02-23T11:27:35;5.70;1.00
6178;DHT22;3122;48.208;11.174;2024-02-23T11:32:44;6.00;1.00
6178;DHT22;3122;48.208;11.174;2024-02-23T11:37:54;5.90;1.00
6178;DHT22;3122;48.208;11.174;2024-02-23T11:43:02;5.90;1.00
6178;DHT22;3122;48.208;11.174;2024-02-23T11:48:05;6.00;1.00
6178;DHT22;3122;48.208;11.174;2024-02-23T11:53:06;6.20;1.00
6178;DHT22;3122;48.208;11.174;2024-02-23T11:58:07;6.10;1.00
6178;DHT22;3122;48.208;11.174;2024-02-23T12:03:07;6.00;1.00
6178;DHT22;3122;48.208;11.174;2024-02-23T12:08:08;6.10;1.00
6178;DHT22;3122;48.208;11.174;2024-02-23T12:13:09;6.00;1.00
6178;DHT22;3122;48.208;11.174;2024-02-23T12:18:10;6.00;1.00
6178;DHT22;3122;48.208;11.174;2024-02-23T12:23:12;6.00;1.00
6178;DHT22;3122;48.208;11.174;2024-02-23T12:28:20;5.90;1.00
6178;DHT22;3122;48.208;11.174;2024-02-23T12:33:21;5.90;1.00
6178;DHT22;3122;48.208;11.174;2024-02-23T12:38:22;6.00;1.00
6178;DHT22;3122;48.208;11.174;2024-02-23T12:43:23;6.00;1.00
6178;DHT22;3122;48.208;11.174;2024-02-23T12:48:27;6.00;1.00
6178;DHT22;3122;48.208;11.174;2024-02-23T12:58:37;5.80;1.00
6178;DHT22;3122;48.208;11.174;2024-02-23T13:03:39;5.80;1.00
6178;DHT22;3122;48.208;11.174;2024-02-23T13:08:42;5.70;1.00
6178;DHT22;3122;48.208;11.174;2024-02-23T13:13:43;5.80;1.00
6178;DHT22;3122;48.208;11.174;2024-02-23T13:18:44;5.80;1.00
6178;DHT22;3122;48.208;11.174;2024-02-23T13:23:47;6.00;1.00
6178;DHT22;3122;48.208;11.174;2024-02-23T13:28:47;5.80;1.00
6178;DHT22;3122;48.208;11.174;2024-02-23T13:33:48;5.80;1.00
6178;DHT22;3122;48.208;11.174;2024-02-23T13:38:48;5.70;1.00
6178;DHT22;3122;48.208;11.174;2024-02-23T13:43:50;5.70;1.00
6178;DHT22;3122;48.208;11.174;2024-02-23T13:49:02;5.70;1.00
6178;DHT22;3122;48.208;11.174;2024-02-23T13:54:06;5.70;1.00
6178;DHT22;3122;48.208;11.174;2024-02-23T13:59:07;5.70;1.00
6178;DHT22;3122;48.208;11.174;2024-02-23T14:04:07;5.50;1.00
6178;DHT22;3122;48.208;11.174;2024-02-23T14:09:09;5.50;1.00
6178;DHT22;3122;48.208;11.174;2024-02-23T14:14:09;5.50;1.00
6178;DHT22;3122;48.208;11.174;2024-02-23T14:19:10;5.30;1.00
6178;DHT22;3122;48.208;11.174;2024-02-23T14:24:11;5.30;1.00
6178;DHT22;3122;48.208;11.174;2024-02-23T14:29:11;5.30;1.00
6178;DHT22;3122;48.208;11.174;2024-02-23T14:34:12;5.40;1.00
6178;DHT22;3122;48.208;11.174;2024-02-23T14:39:13;5.30;1.00
6178;DHT22;3122;48.208;11.174;2024-02-23T14:44:13;5.30;1.00
6178;DHT22;3122;48.208;11.174;2024-02-23T14:49:14;5.30;1.00
6178;DHT22;3122;48.208;11.174;2024-02-23T14:54:15;5.40;1.00
6178;DHT22;3122;48.208;11.174;2024-02-23T14:59:15;5.30;1.00
6178;DHT22;3122;48.208;11.174;2024-02-23T15:04:16;5.40;1.00
6178;DHT22;3122;48.208;11.174;2024-02-23T15:09:16;5.30;1.00
6178;DHT22;3122;48.208;11.174;2024-02-23T15:14:17;5.30;1.00
6178;DHT22;3122;48.208;11.174;2024-02-23T15:19:17;5.30;1.00
6178;DHT22;3122;48.208;11.174;2024-02-23T15:24:18;5.30;1.00
6178;DHT22;3122;48.208;11.174;2024-02-23T15:29:20;5.10;1.00
6178;DHT22;3122;48.208;11.174;2024-02-23T15:34:20;5.20;1.00
6178;DHT22;3122;48.208;11.174;2024-02-23T15:39:21;5.20;1.00
6178;DHT22;3122;48.208;11.174;2024-02-23T15:44:22;5.30;1.00
6178;DHT22;3122;48.208;11.174;2024-02-23T15:49:22;5.20;1.00
6178;DHT22;3122;48.208;11.174;2024-02-23T15:54:24;5.10;1.00
6178;DHT22;3122;48.208;11.174;2024-02-23T15:59:27;5.00;1.00
6178;DHT22;3122;48.208;11.174;2024-02-23T16:04:30;5.00;1.00
6178;DHT22;3122;48.208;11.174;2024-02-23T16:09:30;4.90;1.00
6178;DHT22;3122;48.208;11.174;2024-02-23T16:14:31;5.00;1.00
6178;DHT22;3122;48.208;11.174;2024-02-23T16:19:31;4.90;1.00
6178;DHT22;3122;48.208;11.174;2024-02-23T16:24:32;4.90;1.00
6178;DHT22;3122;48.208;11.174;2024-02-23T16:29:32;4.80;1.00
6178;DHT22;3122;48.208;11.174;2024-02-23T16:34:33;4.80;1.00
6178;DHT22;3122;48.208;11.174;2024-02-23T16:39:36;4.70;1.00
6178;DHT22;3122;48.208;11.174;2024-02-23T16:44:36;4.70;1.00
6178;DHT22;3122;48.208;11.174;2024-02-23T16:49:37;4.70;1.00
6178;DHT22;3122;48.208;11.174;2024-02-23T16:54:37;4.60;1.00
6178;DHT22;3122;48.208;11.174;2024-02-23T16:59:38;4.60;1.00
6178;DHT22;3122;48.208;11.174;2024-02-23T17:04:38;4.60;1.00
6178;DHT22;3122;48.208;11.174;2024-02-23T17:09:39;4.50;1.00
6178;DHT22;3122;48.208;11.174;2024-02-23T17:14:50;4.40;1.00
6178;DHT22;3122;48.208;11.174;2024-02-23T17:19:51;4.40;1.00
6178;DHT22;3122;48.208;11.174;2024-02-23T17:24:51;4.30;1.00
6178;DHT22;3122;48.208;11.174;2024-02-23T17:29:52;4.20;1.00
6178;DHT22;3122;48.208;11.174;2024-02-23T17:34:53;4.30;1.00
6178;DHT22;3122;48.208;11.174;2024-02-23T17:39:54;4.30;1.00
6178;DHT22;3122;48.208;11.174;2024-02-23T17:44:56;4.20;1.00
6178;DHT22;3122;48.208;11.174;2024-02-23T17:49:56;4.00;1.00
6178;DHT22;3122;48.208;11.174;2024-02-23T17:54:58;4.00;1.00
6178;DHT22;3122;48.208;11.174;2024-02-23T17:59:59;4.10;1.00
6178;DHT22;3122;48.208;11.174;2024-02-23T18:04:59;4.00;1.00
6178;DHT22;3122;48.208;11.174;2024-02-23T18:10:00;3.90;1.00
6178;DHT22;3122;48.208;11.174;2024-02-23T18:15:01;3.80;1.00
6178;DHT22;3122;48.208;11.174;2024-02-23T18:20:03;3.60;1.00
6178;DHT22;3122;48.208;11.174;2024-02-23T18:25:04;3.80;1.00
6178;DHT22;3122;48.208;11.174;2024-02-23T18:30:05;3.90;1.00
6178;DHT22;3122;48.208;11.174;2024-02-23T18:35:06;3.80;1.00
6178;DHT22;3122;48.208;11.174;2024-02-23T18:40:08;3.70;1.00
6178;DHT22;3122;48.208;11.174;2024-02-23T18:45:10;3.70;1.00
6178;DHT22;3122;48.208;11.174;2024-02-23T18:50:11;3.70;1.00
6178;DHT22;3122;48.208;11.174;2024-02-23T18:55:11;3.60;1.00
6178;DHT22;3122;48.208;11.174;2024-02-23T19:00:13;3.60;1.00
6178;DHT22;3122;48.208;11.174;2024-02-23T19:05:13;3.60;1.00
6178;DHT22;3122;48.208;11.174;2024-02-23T19:10:14;3.60;1.00
6178;DHT22;3122;48.208;11.174;2024-02-23T19:15:15;3.50;1.00
6178;DHT22;3122;48.208;11.174;2024-02-23T19:20:16;3.50;1.00
6178;DHT22;3122;48.208;11.174;2024-02-23T19:25:16;3.50;1.00
6178;DHT22;3122;48.208;11.174;2024-02-23T19:30:19;3.50;1.00
6178;DHT22;3122;48.208;11.174;2024-02-23T19:35:19;3.50;1.00
6178;DHT22;3122;48.208;11.174;2024-02-23T19:40:20;3.40;1.00
6178;DHT22;3122;48.208;11.174;2024-02-23T19:45:25;3.40;1.00
6178;DHT22;3122;48.208;11.174;2024-02-23T19:50:26;3.30;1.00
6178;DHT22;3122;48.208;11.174;2024-02-23T19:55:26;3.30;1.00
6178;DHT22;3122;48.208;11.174;2024-02-23T20:00:27;3.20;1.00
6178;DHT22;3122;48.208;11.174;2024-02-23T20:05:28;3.10;1.00
6178;DHT22;3122;48.208;11.174;2024-02-23T20:10:28;3.10;1.00
6178;DHT22;3122;48.208;11.174;2024-02-23T20:15:29;3.10;1.00
6178;DHT22;3122;48.208;11.174;2024-02-23T20:20:30;3.10;1.00
6178;DHT22;3122;48.208;11.174;2024-02-23T20:25:30;3.00;1.00
6178;DHT22;3122;48.208;11.174;2024-02-23T20:30:31;3.00;1.00
6178;DHT22;3122;48.208;11.174;2024-02-23T20:35:31;3.00;1.00
6178;DHT22;3122;48.208;11.174;2024-02-23T20:40:32;3.00;1.00
6178;DHT22;3122;48.208;11.174;2024-02-23T20:45:32;3.00;1.00
6178;DHT22;3122;48.208;11.174;2024-02-23T20:50:33;3.00;1.00
6178;DHT22;3122;48.208;11.174;2024-02-23T20:55:33;2.90;1.00
6178;DHT22;3122;48.208;11.174;2024-02-23T21:00:34;2.80;1.00
6178;DHT22;3122;48.208;11.174;2024-02-23T21:05:35;2.80;1.00
6178;DHT22;3122;48.208;11.174;2024-02-23T21:10:36;2.80;1.00
6178;DHT22;3122;48.208;11.174;2024-02-23T21:15:37;2.80;1.00
6178;DHT22;3122;48.208;11.174;2024-02-23T21:20:38;2.80;1.00
6178;DHT22;3122;48.208;11.174;2024-02-23T21:25:39;2.70;1.00
6178;DHT22;3122;48.208;11.174;2024-02-23T21:30:40;2.70;1.00
6178;DHT22;3122;48.208;11.174;2024-02-23T21:35:45;2.70;1.00
6178;DHT22;3122;48.208;11.174;2024-02-23T21:40:46;2.70;1.00
6178;DHT22;3122;48.208;11.174;2024-02-23T21:45:46;2.70;1.00
6178;DHT22;3122;48.208;11.174;2024-02-23T21:50:47;2.70;1.00
6178;DHT22;3122;48.208;11.174;2024-02-23T21:55:48;2.60;1.00
6178;DHT22;3122;48.208;11.174;2024-02-23T22:00:48;2.60;1.00
6178;DHT22;3122;48.208;11.174;2024-02-23T22:05:49;2.60;1.00
6178;DHT22;3122;48.208;11.174;2024-02-23T22:10:49;2.50;1.00
6178;DHT22;3122;48.208;11.174;2024-02-23T22:15:51;2.60;1.00
6178;DHT22;3122;48.208;11.174;2024-02-23T22:20:51;2.50;1.00
6178;DHT22;3122;48.208;11.174;2024-02-23T22:25:52;2.60;1.00
6178;DHT22;3122;48.208;11.174;2024-02-23T22:30:53;2.40;1.00
6178;DHT22;3122;48.208;11.174;2024-02-23T22:35:53;2.30;1.00
6178;DHT22;3122;48.208;11.174;2024-02-23T22:40:54;2.30;1.00
6178;DHT22;3122;48.208;11.174;2024-02-23T22:45:54;2.30;1.00
6178;DHT22;3122;48.208;11.174;2024-02-23T22:50:59;2.30;1.00
6178;DHT22;3122;48.208;11.174;2024-02-23T22:56:00;2.30;1.00
6178;DHT22;3122;48.208;11.174;2024-02-23T23:01:01;2.30;1.00
6178;DHT22;3122;48.208;11.174;2024-02-23T23:06:03;2.20;1.00
6178;DHT22;3122;48.208;11.174;2024-02-23T23:11:03;2.10;1.00
6178;DHT22;3122;48.208;11.174;2024-02-23T23:16:04;2.00;1.00
6178;DHT22;3122;48.208;11.174;2024-02-23T23:21:04;2.10;1.00
6178;DHT22;3122;48.208;11.174;2024-02-23T23:26:05;2.10;1.00
6178;DHT22;3122;48.208;11.174;2024-02-23T23:31:06;2.00;1.00
6178;DHT22;3122;48.208;11.174;2024-02-23T23:36:06;2.00;1.00
6178;DHT22;3122;48.208;11.174;2024-02-23T23:41:07;2.00;1.00
6178;DHT22;3122;48.208;11.174;2024-02-23T23:46:08;1.90;1.00
6178;DHT22;3122;48.208;11.174;2024-02-23T23:51:09;1.90;1.00
6178;DHT22;3122;48.208;11.174;2024-02-23T23:56:09;1.90;1.00
